Time;durP1;ratioP1;P1;durP2;ratioP2;P2;SDS_P1;SDS_P2;PMS_P1;PMS_P2;Temp;Humidity;BMP_temperature;BMP_pressure;BME280_temperature;BME280_humidity;BME280_pressure;Samples;Min_cycle;Max_cycle;Signal;HPM_P1;HPM_P2
2021/05/26 00:00:17;;;;;;;3.33;2.15;;;8.20;99.90;;;;;;5036815;28;20045;-71
2021/05/26 00:02:43;;;;;;;5.13;1.88;;;8.30;99.90;;;;;;5054747;28;20031;-71
2021/05/26 00:05:09;;;;;;;2.55;2.15;;;8.40;99.90;;;;;;5055790;28;20145;-72
2021/05/26 00:07:34;;;;;;;3.35;1.95;;;8.30;99.90;;;;;;5060857;28;20067;-70
2021/05/26 00:10:00;;;;;;;2.72;1.83;;;8.40;99.90;;;;;;5074188;28;20032;-71
2021/05/26 00:12:25;;;;;;;5.63;1.80;;;8.40;99.90;;;;;;5050974;28;20025;-71
2021/05/26 00:14:51;;;;;;;4.25;2.05;;;8.50;99.90;;;;;;5048806;28;20028;-71
2021/05/26 00:17:17;;;;;;;1.80;1.70;;;8.50;99.90;;;;;;5037430;28;20060;-71
2021/05/26 00:19:43;;;;;;;3.83;1.83;;;8.40;99.90;;;;;;5066894;28;20510;-71
2021/05/26 00:22:10;;;;;;;3.22;1.88;;;8.50;99.90;;;;;;5068254;28;20473;-71
2021/05/26 00:24:36;;;;;;;3.60;1.98;;;8.60;99.90;;;;;;5054238;28;20151;-71
2021/05/26 00:27:02;;;;;;;3.97;1.70;;;8.50;99.90;;;;;;5067876;28;20059;-71
2021/05/26 00:29:27;;;;;;;4.43;2.00;;;8.60;99.90;;;;;;5066478;28;20028;-70
2021/05/26 00:31:53;;;;;;;4.57;2.30;;;8.50;99.90;;;;;;5074021;28;20028;-71
2021/05/26 00:34:18;;;;;;;2.58;1.85;;;8.60;99.90;;;;;;5043267;28;20017;-71
2021/05/26 00:36:44;;;;;;;3.40;1.92;;;8.60;99.90;;;;;;5042068;28;20103;-71
2021/05/26 00:39:09;;;;;;;4.90;1.88;;;8.60;99.90;;;;;;5062028;28;20019;-71
2021/05/26 00:41:35;;;;;;;4.65;1.70;;;8.60;99.90;;;;;;5056308;28;20105;-71
2021/05/26 00:44:01;;;;;;;2.47;1.70;;;8.60;99.90;;;;;;5061490;28;20040;-71
2021/05/26 00:46:26;;;;;;;3.28;1.60;;;8.60;99.90;;;;;;5053588;28;20036;-71
2021/05/26 00:48:52;;;;;;;4.68;1.80;;;8.60;99.90;;;;;;5053814;28;20103;-70
2021/05/26 00:51:18;;;;;;;4.72;1.80;;;8.60;99.90;;;;;;5053421;28;20035;-71
2021/05/26 00:53:43;;;;;;;3.45;1.77;;;8.60;99.90;;;;;;5053808;28;20104;-71
2021/05/26 00:56:09;;;;;;;3.80;1.80;;;8.60;99.90;;;;;;5073197;28;20598;-70
2021/05/26 00:58:35;;;;;;;3.97;1.80;;;8.60;99.90;;;;;;5045692;28;20024;-71
2021/05/26 01:01:00;;;;;;;3.47;1.98;;;8.70;99.90;;;;;;5058447;28;20488;-71
2021/05/26 01:03:28;;;;;;;5.05;1.98;;;8.70;99.90;;;;;;5073659;28;20063;-71
2021/05/26 01:05:54;;;;;;;3.17;2.20;;;8.70;99.90;;;;;;5070839;28;20027;-70
2021/05/26 01:08:19;;;;;;;4.80;2.00;;;8.70;99.90;;;;;;5053203;28;20082;-70
2021/05/26 01:10:45;;;;;;;3.10;1.92;;;8.70;99.90;;;;;;5071512;28;20028;-71
2021/05/26 01:13:11;;;;;;;4.07;1.90;;;8.60;99.90;;;;;;5061677;28;20392;-72
2021/05/26 01:15:38;;;;;;;6.47;2.15;;;8.50;99.90;;;;;;5071390;28;20526;-71
2021/05/26 01:18:26;;;;;;;3.22;2.20;;;8.50;99.90;;;;;;5061210;28;20036;-71
2021/05/26 01:20:53;;;;;;;5.28;2.28;;;8.50;99.90;;;;;;5042563;28;20013;-71
2021/05/26 01:23:19;;;;;;;3.72;2.05;;;8.40;99.90;;;;;;5067644;28;20024;-71
2021/05/26 01:25:47;;;;;;;3.85;1.80;;;8.50;99.90;;;;;;5053855;28;20384;-71
2021/05/26 01:28:13;;;;;;;5.20;2.33;;;8.50;99.90;;;;;;5051256;28;20566;-72
2021/05/26 01:30:39;;;;;;;6.60;2.22;;;8.50;99.90;;;;;;5063978;28;20114;-71
2021/05/26 01:33:06;;;;;;;3.15;1.90;;;8.60;99.90;;;;;;5048940;28;20051;-71
2021/05/26 01:35:31;;;;;;;4.22;1.70;;;8.50;99.90;;;;;;5062466;28;20020;-72
2021/05/26 01:37:57;;;;;;;3.30;1.98;;;8.50;99.90;;;;;;5059915;28;20020;-72
2021/05/26 01:40:23;;;;;;;7.05;2.38;;;8.40;99.90;;;;;;5064449;28;20063;-72
2021/05/26 01:42:48;;;;;;;4.57;2.10;;;8.30;99.90;;;;;;5049358;28;20051;-72
2021/05/26 01:45:16;;;;;;;4.28;2.20;;;8.20;99.90;;;;;;5078617;22;20044;-72
2021/05/26 01:47:44;;;;;;;6.30;2.45;;;8.10;99.90;;;;;;5067864;28;20021;-72
2021/05/26 01:50:19;;;;;;;4.88;2.20;;;8.10;99.90;;;;;;5054265;28;20025;-72
2021/05/26 01:52:47;;;;;;;6.45;2.08;;;8.20;99.90;;;;;;5072429;28;20048;-71
2021/05/26 01:55:14;;;;;;;6.43;2.20;;;8.30;99.90;;;;;;5072172;28;20036;-73
2021/05/26 01:57:42;;;;;;;2.78;2.10;;;8.30;99.90;;;;;;5072247;28;20040;-75
2021/05/26 02:00:08;;;;;;;6.18;2.25;;;8.20;99.90;;;;;;5052832;28;20028;-72
2021/05/26 02:02:34;;;;;;;4.97;2.20;;;8.40;99.90;;;;;;5070186;28;20116;-74
2021/05/26 02:04:59;;;;;;;4.10;1.90;;;8.30;99.90;;;;;;5072245;28;20099;-72
2021/05/26 02:07:25;;;;;;;2.88;1.92;;;8.40;99.90;;;;;;5056920;28;20381;-72
2021/05/26 02:09:50;;;;;;;3.08;1.83;;;8.40;99.90;;;;;;5044911;28;20028;-72
2021/05/26 02:12:21;;;;;;;4.68;2.30;;;8.40;99.90;;;;;;5071987;28;20035;-72
2021/05/26 02:14:56;;;;;;;6.93;2.13;;;8.30;99.90;;;;;;5060040;28;20024;-72
2021/05/26 02:17:22;;;;;;;4.68;1.92;;;8.20;99.90;;;;;;5058521;28;20028;-72
2021/05/26 02:19:49;;;;;;;3.17;2.00;;;8.10;99.90;;;;;;5071711;28;20104;-72
2021/05/26 02:22:15;;;;;;;2.53;2.28;;;8.20;99.90;;;;;;5053936;28;20118;-73
2021/05/26 02:24:43;;;;;;;6.57;2.25;;;8.10;99.90;;;;;;5053846;28;20021;-71
2021/05/26 02:27:08;;;;;;;4.47;2.15;;;8.10;99.90;;;;;;5071935;28;20020;-72
2021/05/26 02:29:34;;;;;;;3.72;2.10;;;8.20;99.90;;;;;;5071317;28;20062;-72
2021/05/26 02:32:00;;;;;;;3.28;1.80;;;8.30;99.90;;;;;;5053842;28;20111;-72
2021/05/26 02:34:26;;;;;;;3.55;2.00;;;8.30;99.90;;;;;;5053680;28;20020;-73
2021/05/26 02:36:51;;;;;;;3.58;1.90;;;8.30;99.90;;;;;;5072063;28;20086;-73
2021/05/26 02:39:17;;;;;;;4.40;2.03;;;8.20;99.90;;;;;;5058784;28;20028;-73
2021/05/26 02:41:43;;;;;;;5.78;2.03;;;8.20;99.90;;;;;;5072380;28;20024;-72
2021/05/26 02:44:09;;;;;;;3.45;2.30;;;8.20;99.90;;;;;;5072446;28;20025;-72
2021/05/26 02:46:35;;;;;;;3.45;2.15;;;8.20;99.90;;;;;;5039225;28;20040;-72
2021/05/26 02:49:02;;;;;;;4.35;2.20;;;8.20;99.90;;;;;;5048732;28;20024;-72
2021/05/26 02:51:27;;;;;;;4.53;2.15;;;8.20;99.90;;;;;;5059631;28;20021;-72
2021/05/26 02:53:53;;;;;;;3.60;1.90;;;8.20;99.90;;;;;;5040694;28;20510;-72
2021/05/26 02:56:19;;;;;;;6.25;2.58;;;8.20;99.90;;;;;;5064795;28;20032;-72
2021/05/26 02:58:44;;;;;;;5.32;2.45;;;8.30;99.90;;;;;;5044048;28;20029;-72
2021/05/26 03:01:10;;;;;;;5.35;2.20;;;8.40;99.90;;;;;;5038440;28;20032;-73
2021/05/26 03:03:35;;;;;;;4.57;2.30;;;8.10;99.90;;;;;;5052451;28;20025;-73
2021/05/26 03:06:01;;;;;;;3.97;2.10;;;8.10;99.90;;;;;;5052746;28;20036;-72
2021/05/26 03:08:26;;;;;;;4.15;2.15;;;8.20;99.90;;;;;;5048920;28;20028;-72
2021/05/26 03:10:56;;;;;;;4.47;2.45;;;8.20;99.90;;;;;;5051550;28;20036;-73
2021/05/26 03:13:25;;;;;;;3.85;2.40;;;8.00;99.90;;;;;;5033523;28;20036;-76
2021/05/26 03:15:51;;;;;;;3.13;2.35;;;8.00;99.90;;;;;;5058871;28;20035;-75
2021/05/26 03:18:18;;;;;;;5.60;2.50;;;8.10;99.90;;;;;;5040031;28;20025;-72
2021/05/26 03:20:44;;;;;;;6.15;2.65;;;8.10;99.90;;;;;;5064906;28;20033;-76
2021/05/26 03:23:09;;;;;;;4.65;2.50;;;8.10;99.90;;;;;;5039208;28;20025;-76
2021/05/26 03:25:35;;;;;;;5.95;2.70;;;8.20;99.90;;;;;;5070447;28;20100;-76
2021/05/26 03:28:01;;;;;;;5.32;2.70;;;8.20;99.90;;;;;;5052422;28;20032;-75
2021/05/26 03:30:26;;;;;;;5.15;2.42;;;8.20;99.90;;;;;;5056506;28;20057;-75
2021/05/26 03:32:52;;;;;;;5.40;2.60;;;8.20;99.90;;;;;;5049051;28;20079;-72
2021/05/26 03:35:18;;;;;;;5.28;2.10;;;8.20;99.90;;;;;;5063714;28;20021;-74
2021/05/26 03:37:44;;;;;;;4.18;2.28;;;8.30;99.90;;;;;;5063004;28;20066;-75
2021/05/26 03:40:12;;;;;;;8.95;2.80;;;8.30;99.90;;;;;;5067885;28;20047;-74
2021/05/26 03:42:39;;;;;;;4.72;2.40;;;8.30;99.90;;;;;;5050470;28;20063;-75
2021/05/26 03:45:07;;;;;;;4.88;2.17;;;8.30;99.90;;;;;;5054847;28;20124;-74
2021/05/26 03:47:33;;;;;;;6.72;2.47;;;8.50;99.90;;;;;;5068461;28;20058;-71
2021/05/26 03:49:59;;;;;;;5.38;2.40;;;8.20;99.90;;;;;;5063026;28;20025;-72
2021/05/26 03:52:25;;;;;;;5.55;2.47;;;8.20;99.90;;;;;;5061698;28;20037;-74
2021/05/26 03:54:50;;;;;;;4.45;2.15;;;8.20;99.90;;;;;;5068647;28;20036;-75
2021/05/26 03:57:16;;;;;;;5.38;2.40;;;8.30;99.90;;;;;;5069239;28;20027;-75
2021/05/26 03:59:41;;;;;;;4.38;2.30;;;8.30;99.90;;;;;;5021635;28;20021;-74
2021/05/26 04:02:07;;;;;;;5.53;3.03;;;8.40;99.90;;;;;;5049942;28;20021;-74
2021/05/26 04:04:33;;;;;;;7.22;2.50;;;8.40;99.90;;;;;;5066848;28;20036;-75
2021/05/26 04:06:59;;;;;;;5.35;2.38;;;8.40;99.90;;;;;;5057719;28;20021;-75
2021/05/26 04:09:24;;;;;;;5.05;2.50;;;8.40;99.90;;;;;;5054487;28;20043;-75
2021/05/26 04:11:50;;;;;;;6.25;2.70;;;8.40;99.90;;;;;;5068674;28;20032;-74
2021/05/26 04:14:15;;;;;;;4.50;2.22;;;8.30;99.90;;;;;;5062306;28;20025;-74
2021/05/26 04:16:41;;;;;;;6.03;2.90;;;8.30;99.90;;;;;;5061087;28;20044;-74
2021/05/26 04:19:07;;;;;;;7.93;2.97;;;8.30;99.90;;;;;;5074765;28;20024;-73
2021/05/26 04:21:33;;;;;;;7.93;2.72;;;8.30;99.90;;;;;;5075572;28;20519;-74
2021/05/26 04:23:58;;;;;;;4.03;2.10;;;8.30;99.90;;;;;;5054936;28;20059;-74
2021/05/26 04:26:24;;;;;;;5.00;2.67;;;8.30;99.90;;;;;;5042651;28;20021;-73
2021/05/26 04:28:50;;;;;;;7.38;2.38;;;8.30;99.90;;;;;;5054949;28;20443;-73
2021/05/26 04:31:16;;;;;;;4.25;2.00;;;8.40;99.90;;;;;;5050161;28;20064;-74
2021/05/26 04:33:42;;;;;;;7.88;2.60;;;8.40;99.90;;;;;;5055744;28;20396;-74
2021/05/26 04:36:08;;;;;;;8.00;2.58;;;8.40;99.90;;;;;;5074002;28;20024;-74
2021/05/26 04:38:34;;;;;;;5.28;2.60;;;8.40;99.90;;;;;;5036344;28;20025;-74
2021/05/26 04:41:00;;;;;;;4.72;2.60;;;8.40;99.90;;;;;;5049736;28;20475;-74
2021/05/26 04:43:27;;;;;;;7.68;2.50;;;8.40;99.90;;;;;;5075813;28;20491;-73
2021/05/26 04:45:53;;;;;;;6.45;2.50;;;8.30;99.90;;;;;;5075733;28;20067;-73
2021/05/26 04:48:19;;;;;;;4.57;2.50;;;8.40;99.90;;;;;;5075925;28;20280;-73
2021/05/26 04:50:45;;;;;;;5.63;2.65;;;8.40;99.90;;;;;;5075126;28;20028;-73
2021/05/26 04:53:10;;;;;;;6.03;3.50;;;8.50;99.90;;;;;;5049608;28;20024;-73
2021/05/26 04:55:36;;;;;;;7.90;2.90;;;8.50;99.90;;;;;;5049794;28;20772;-74
2021/05/26 04:58:04;;;;;;;3.70;2.50;;;8.60;99.90;;;;;;5066779;28;20024;-74
2021/05/26 05:00:30;;;;;;;4.85;2.88;;;8.50;99.90;;;;;;5054526;28;20481;-74
2021/05/26 05:02:58;;;;;;;5.50;2.97;;;8.50;99.90;;;;;;5066103;28;20029;-74
2021/05/26 05:05:25;;;;;;;9.38;6.28;;;8.60;99.90;;;;;;5035688;28;20037;-73
2021/05/26 05:07:50;;;;;;;4.72;2.85;;;8.60;99.90;;;;;;5053746;28;20075;-74
2021/05/26 05:10:16;;;;;;;6.03;3.72;;;8.70;99.90;;;;;;5069394;28;20483;-74
2021/05/26 05:12:42;;;;;;;4.82;3.97;;;8.60;99.90;;;;;;5065985;28;20036;-74
2021/05/26 05:15:09;;;;;;;6.15;4.22;;;8.60;99.90;;;;;;5066589;28;20528;-74
2021/05/26 05:17:34;;;;;;;4.82;3.17;;;8.40;99.90;;;;;;5061559;28;20043;-75
2021/05/26 05:20:00;;;;;;;5.63;3.05;;;8.30;99.90;;;;;;5041716;28;20484;-74
2021/05/26 05:22:25;;;;;;;6.13;3.20;;;8.30;99.90;;;;;;5065884;28;20025;-74
2021/05/26 05:24:51;;;;;;;5.95;3.38;;;8.30;99.90;;;;;;5054236;28;20028;-73
2021/05/26 05:27:17;;;;;;;6.43;3.33;;;8.30;99.90;;;;;;5067352;28;20025;-73
2021/05/26 05:29:42;;;;;;;9.55;3.40;;;8.30;99.90;;;;;;5050111;28;20021;-73
2021/05/26 05:32:09;;;;;;;6.03;3.50;;;8.40;99.90;;;;;;5067931;28;20108;-73
2021/05/26 05:34:35;;;;;;;6.55;3.97;;;8.60;99.90;;;;;;5049740;28;20032;-73
2021/05/26 05:37:00;;;;;;;6.60;3.85;;;8.70;99.90;;;;;;5036250;28;20029;-73
2021/05/26 05:39:26;;;;;;;7.15;4.07;;;8.60;99.90;;;;;;5046503;28;20051;-73
2021/05/26 05:41:51;;;;;;;4.57;4.00;;;8.60;99.90;;;;;;5054669;28;20099;-71
2021/05/26 05:44:17;;;;;;;5.47;3.67;;;8.80;99.90;;;;;;5064866;28;20048;-70
2021/05/26 05:46:43;;;;;;;4.50;3.33;;;8.90;99.90;;;;;;5066513;28;20091;-73
2021/05/26 05:49:09;;;;;;;6.53;3.47;;;8.90;99.90;;;;;;5048383;28;20024;-73
2021/05/26 05:51:35;;;;;;;5.50;3.42;;;9.00;99.90;;;;;;5060363;28;20028;-73
2021/05/26 05:54:00;;;;;;;5.85;3.38;;;9.10;99.90;;;;;;5061433;28;20028;-73
2021/05/26 05:56:26;;;;;;;7.45;3.42;;;9.20;99.90;;;;;;5066964;28;20044;-73
2021/05/26 05:58:51;;;;;;;4.00;3.35;;;9.20;99.90;;;;;;5054061;28;20028;-73
2021/05/26 06:01:17;;;;;;;6.70;3.38;;;9.20;99.90;;;;;;5035564;28;20025;-73
2021/05/26 06:03:42;;;;;;;5.75;3.22;;;9.20;99.90;;;;;;5050112;28;20035;-72
2021/05/26 06:06:08;;;;;;;5.47;2.95;;;9.30;99.90;;;;;;5047561;28;20549;-73
2021/05/26 06:08:35;;;;;;;6.18;3.15;;;9.30;99.90;;;;;;5066526;28;20391;-73
2021/05/26 06:11:01;;;;;;;4.97;3.03;;;9.30;99.90;;;;;;5059956;28;20384;-74
2021/05/26 06:13:27;;;;;;;4.93;2.88;;;9.50;99.90;;;;;;5058887;28;20033;-73
2021/05/26 06:15:53;;;;;;;5.68;2.92;;;9.50;99.90;;;;;;5064668;28;20124;-73
2021/05/26 06:18:19;;;;;;;3.97;2.70;;;9.60;99.90;;;;;;5052553;28;20681;-73
2021/05/26 06:20:45;;;;;;;8.40;3.30;;;9.60;99.90;;;;;;5052686;28;20029;-73
2021/05/26 06:23:10;;;;;;;6.88;2.83;;;9.60;99.90;;;;;;5062708;28;20159;-73
2021/05/26 06:25:38;;;;;;;4.10;2.83;;;9.60;99.90;;;;;;5041820;28;20032;-73
2021/05/26 06:28:04;;;;;;;5.25;3.20;;;9.70;99.90;;;;;;5053032;28;20036;-73
2021/05/26 06:30:29;;;;;;;4.38;2.60;;;9.70;99.90;;;;;;5039378;28;20029;-73
2021/05/26 06:32:55;;;;;;;5.38;2.70;;;9.70;99.90;;;;;;5054324;28;20104;-73
2021/05/26 06:35:20;;;;;;;5.65;3.10;;;9.70;99.90;;;;;;5054635;28;20162;-73
2021/05/26 06:37:46;;;;;;;5.68;3.55;;;9.70;99.90;;;;;;5041752;28;20110;-73
2021/05/26 06:40:12;;;;;;;4.90;2.80;;;9.70;99.90;;;;;;5043209;28;20031;-73
2021/05/26 06:42:37;;;;;;;6.22;3.67;;;9.60;99.90;;;;;;5055210;28;20017;-73
2021/05/26 06:45:04;;;;;;;7.88;5.13;;;9.50;99.90;;;;;;5051952;28;20021;-73
2021/05/26 06:47:30;;;;;;;5.65;3.30;;;9.60;99.90;;;;;;5052122;28;20033;-73
2021/05/26 06:49:55;;;;;;;4.85;4.00;;;9.50;99.90;;;;;;5038684;28;20028;-73
2021/05/26 06:52:21;;;;;;;5.32;3.40;;;9.50;99.90;;;;;;5052230;28;20057;-73
2021/05/26 06:54:47;;;;;;;6.60;3.33;;;9.50;99.90;;;;;;5052809;28;20021;-73
2021/05/26 06:57:12;;;;;;;6.20;3.30;;;9.60;99.90;;;;;;5034763;28;20063;-72
2021/05/26 06:59:38;;;;;;;4.22;2.58;;;9.60;99.90;;;;;;5052357;28;20041;-72
2021/05/26 07:02:03;;;;;;;5.68;3.03;;;9.60;99.90;;;;;;5054794;28;20056;-73
2021/05/26 07:04:29;;;;;;;5.03;3.30;;;9.60;99.90;;;;;;5035079;28;20017;-72
2021/05/26 07:06:57;;;;;;;7.03;3.53;;;9.70;99.90;;;;;;5045124;28;20067;-73
2021/05/26 07:09:23;;;;;;;5.88;3.00;;;9.60;99.90;;;;;;5036648;28;20033;-72
2021/05/26 07:11:49;;;;;;;5.93;3.50;;;9.60;99.90;;;;;;5035040;28;20074;-73
2021/05/26 07:14:14;;;;;;;5.03;3.40;;;9.70;99.90;;;;;;5043016;28;20048;-73
2021/05/26 07:16:40;;;;;;;6.95;3.38;;;9.70;99.90;;;;;;5058976;28;20025;-72
2021/05/26 07:19:07;;;;;;;4.38;2.97;;;9.80;99.90;;;;;;5050102;28;20028;-74
2021/05/26 07:21:33;;;;;;;4.72;3.58;;;9.90;99.90;;;;;;5047614;28;20029;-73
2021/05/26 07:23:58;;;;;;;11.75;4.32;;;10.00;99.90;;;;;;5057982;28;20361;-73
2021/05/26 07:26:24;;;;;;;12.55;8.25;;;9.90;99.90;;;;;;5051663;28;20033;-72
2021/05/26 07:28:50;;;;;;;8.88;5.45;;;10.00;99.90;;;;;;5047344;28;20083;-72
2021/05/26 07:31:15;;;;;;;6.22;3.35;;;10.20;99.90;;;;;;5062983;28;20060;-72
2021/05/26 07:33:41;;;;;;;4.90;3.40;;;10.20;99.90;;;;;;5045485;28;20052;-72
2021/05/26 07:36:07;;;;;;;4.80;3.20;;;10.40;99.90;;;;;;5062711;28;20036;-72
2021/05/26 07:38:33;;;;;;;6.93;3.22;;;10.50;99.90;;;;;;5063711;28;20407;-72
2021/05/26 07:40:58;;;;;;;7.00;3.13;;;10.40;99.90;;;;;;5065046;28;20017;-72
2021/05/26 07:43:24;;;;;;;4.68;2.83;;;10.60;99.90;;;;;;5072842;28;20037;-72
2021/05/26 07:45:50;;;;;;;4.70;2.67;;;10.60;99.90;;;;;;5059082;28;20057;-72
2021/05/26 07:48:16;;;;;;;6.45;2.50;;;10.50;99.90;;;;;;5034649;28;20040;-73
2021/05/26 07:50:41;;;;;;;4.70;2.60;;;10.40;99.90;;;;;;5065450;28;20035;-72
2021/05/26 07:53:07;;;;;;;7.40;2.72;;;10.60;99.90;;;;;;5047955;28;20029;-73
2021/05/26 07:55:33;;;;;;;7.75;2.90;;;10.80;99.90;;;;;;5052391;28;20029;-73
2021/05/26 07:57:58;;;;;;;6.40;2.83;;;11.00;99.90;;;;;;5065998;28;20028;-73
2021/05/26 08:00:24;;;;;;;7.28;2.72;;;11.10;99.90;;;;;;5052319;28;20033;-73
2021/05/26 08:02:51;;;;;;;4.65;2.35;;;11.10;99.90;;;;;;5065367;28;20024;-73
2021/05/26 08:05:18;;;;;;;4.72;3.15;;;10.90;99.90;;;;;;5066415;28;20054;-73
2021/05/26 08:07:43;;;;;;;6.43;3.50;;;10.90;99.90;;;;;;5042424;28;20488;-73
2021/05/26 08:10:12;;;;;;;4.25;2.75;;;11.00;99.90;;;;;;5056081;28;20084;-73
2021/05/26 08:12:37;;;;;;;8.73;2.92;;;10.90;99.90;;;;;;5041914;28;20403;-72
2021/05/26 08:15:04;;;;;;;4.63;2.40;;;10.90;99.90;;;;;;5056693;28;20036;-73
2021/05/26 08:17:30;;;;;;;3.67;2.25;;;11.00;99.90;;;;;;5049972;28;20113;-70
2021/05/26 08:19:55;;;;;;;9.20;2.95;;;11.10;99.90;;;;;;5070125;28;20056;-72
2021/05/26 08:22:21;;;;;;;3.60;2.10;;;11.10;99.90;;;;;;5076450;28;20450;-73
2021/05/26 08:24:46;;;;;;;6.35;2.20;;;11.10;99.90;;;;;;5063348;28;20029;-73
2021/05/26 08:27:12;;;;;;;4.82;2.20;;;11.10;99.90;;;;;;5068371;28;20056;-72
2021/05/26 08:29:37;;;;;;;4.38;1.70;;;11.00;99.90;;;;;;5048233;28;20024;-73
2021/05/26 08:32:03;;;;;;;5.55;2.10;;;10.90;99.90;;;;;;5056092;28;20040;-73
2021/05/26 08:34:29;;;;;;;5.00;1.92;;;10.70;99.90;;;;;;5069438;28;20032;-72
2021/05/26 08:36:56;;;;;;;3.17;1.85;;;10.40;99.90;;;;;;5063131;28;20025;-73
2021/05/26 08:39:22;;;;;;;4.32;2.15;;;10.40;99.90;;;;;;5044017;28;20025;-73
2021/05/26 08:41:54;;;;;;;5.88;2.08;;;10.60;99.90;;;;;;5050034;28;20075;-73
2021/05/26 08:44:20;;;;;;;6.47;2.00;;;10.60;99.90;;;;;;5068701;28;20033;-73
2021/05/26 08:46:52;;;;;;;4.40;2.08;;;10.40;99.90;;;;;;5054672;28;20044;-72
2021/05/26 08:49:18;;;;;;;3.35;1.90;;;10.50;99.90;;;;;;5049819;28;20136;-72
2021/05/26 08:51:44;;;;;;;4.63;1.88;;;10.50;99.90;;;;;;5055284;28;20021;-73
2021/05/26 08:54:10;;;;;;;2.35;1.73;;;10.60;99.90;;;;;;5049150;28;20032;-73
2021/05/26 08:56:36;;;;;;;3.45;2.00;;;10.70;99.90;;;;;;5064086;28;20103;-73
2021/05/26 08:59:01;;;;;;;4.20;1.80;;;10.50;99.90;;;;;;5059056;28;20029;-73
2021/05/26 09:01:27;;;;;;;4.03;2.00;;;10.40;99.90;;;;;;5064027;28;20028;-73
2021/05/26 09:03:54;;;;;;;3.90;2.00;;;10.50;99.90;;;;;;5044067;28;20171;-72
2021/05/26 09:06:20;;;;;;;3.88;2.08;;;10.50;99.90;;;;;;5065997;28;20099;-73
2021/05/26 09:08:50;;;;;;;4.50;1.92;;;10.50;99.90;;;;;;5050659;28;20391;-73
2021/05/26 09:11:33;;;;;;;6.45;2.03;;;10.50;99.90;;;;;;5054799;28;20029;-72
2021/05/26 09:14:13;;;;;;;2.92;1.67;;;10.60;99.90;;;;;;5049648;28;20021;-73
2021/05/26 09:16:39;;;;;;;3.30;1.65;;;10.90;99.90;;;;;;5036738;28;20039;-72
2021/05/26 09:19:06;;;;;;;3.10;1.50;;;10.80;99.90;;;;;;5054243;28;20383;-73
2021/05/26 09:21:42;;;;;;;3.17;1.90;;;10.80;99.90;;;;;;5037488;28;20021;-73
2021/05/26 09:24:26;;;;;;;4.57;1.77;;;10.60;99.90;;;;;;5047519;28;20017;-72
2021/05/26 09:27:01;;;;;;;4.25;1.70;;;10.50;99.90;;;;;;5036485;28;20396;-73
2021/05/26 09:29:42;;;;;;;2.63;1.50;;;10.60;99.90;;;;;;5066001;28;20361;-72
2021/05/26 09:32:22;;;;;;;2.60;1.52;;;10.60;99.90;;;;;;5049733;28;20316;-73
2021/05/26 09:34:48;;;;;;;2.05;1.52;;;10.60;99.90;;;;;;5070820;28;20468;-73
2021/05/26 09:37:20;;;;;;;4.03;1.65;;;10.70;99.90;;;;;;5042463;28;20112;-73
2021/05/26 09:40:13;;;;;;;3.55;1.77;;;10.60;99.90;;;;;;5053808;28;20047;-73
2021/05/26 09:42:43;;;;;;;3.60;1.55;;;10.70;99.90;;;;;;5049335;28;20020;-72
2021/05/26 09:45:17;;;;;;;2.95;1.75;;;10.90;99.90;;;;;;5061640;28;20024;-72
2021/05/26 09:47:51;;;;;;;2.50;1.90;;;10.50;99.90;;;;;;5060594;28;20033;-73
2021/05/26 09:50:36;;;;;;;2.15;1.38;;;10.50;99.90;;;;;;5063734;28;20481;-72
2021/05/26 09:53:18;;;;;;;2.60;1.48;;;10.30;99.90;;;;;;5054974;28;20017;-72
2021/05/26 09:55:45;;;;;;;3.47;1.80;;;10.30;99.90;;;;;;5048709;28;20024;-72
2021/05/26 09:58:14;;;;;;;3.15;1.63;;;10.20;99.90;;;;;;5051509;28;20484;-73
2021/05/26 10:00:42;;;;;;;3.35;1.80;;;10.20;99.90;;;;;;5046876;28;20035;-72
2021/05/26 10:03:08;;;;;;;3.63;1.58;;;10.30;99.90;;;;;;5039080;28;20103;-72
2021/05/26 10:05:34;;;;;;;2.20;1.45;;;10.30;99.90;;;;;;5048679;28;20174;-73
2021/05/26 10:08:02;;;;;;;1.73;1.40;;;10.40;99.90;;;;;;5046280;28;20384;-73
2021/05/26 10:10:29;;;;;;;2.42;1.20;;;10.60;99.90;;;;;;5054447;28;20099;-72
2021/05/26 10:13:03;;;;;;;3.08;1.30;;;10.50;99.90;;;;;;5053243;28;20024;-73
2021/05/26 10:15:31;;;;;;;5.07;1.70;;;10.50;99.90;;;;;;5056374;28;20017;-73
2021/05/26 10:17:58;;;;;;;2.47;1.30;;;10.50;99.90;;;;;;5053424;28;20028;-73
2021/05/26 10:20:30;;;;;;;3.72;2.17;;;10.50;99.90;;;;;;5053002;28;20025;-72
2021/05/26 10:23:01;;;;;;;6.53;1.70;;;10.30;99.90;;;;;;5053353;28;20039;-73
2021/05/26 10:25:26;;;;;;;4.03;1.50;;;10.20;99.90;;;;;;5052969;28;20108;-73
2021/05/26 10:27:54;;;;;;;4.60;2.15;;;10.20;99.90;;;;;;5061242;28;20051;-72
2021/05/26 10:30:26;;;;;;;2.83;1.75;;;10.10;99.90;;;;;;5055259;28;20025;-73
2021/05/26 10:32:54;;;;;;;2.53;1.40;;;10.10;99.90;;;;;;5053915;28;20056;-72
2021/05/26 10:35:21;;;;;;;4.50;1.85;;;10.10;99.90;;;;;;5051450;28;20017;-73
2021/05/26 10:37:59;;;;;;;2.95;1.98;;;10.20;99.90;;;;;;5053047;28;20013;-73
2021/05/26 10:40:31;;;;;;;2.25;1.50;;;10.30;99.90;;;;;;5052754;28;20021;-73
2021/05/26 10:43:16;;;;;;;2.00;1.60;;;10.40;99.90;;;;;;5052615;28;20048;-73
2021/05/26 10:45:42;;;;;;;4.20;1.60;;;10.60;99.90;;;;;;5042468;28;20120;-72
2021/05/26 10:48:08;;;;;;;1.80;1.65;;;10.60;99.90;;;;;;5052977;28;20021;-72
2021/05/26 10:50:49;;;;;;;2.03;1.40;;;10.50;99.90;;;;;;5052898;28;20393;-73
2021/05/26 10:53:16;;;;;;;3.70;1.70;;;10.50;99.90;;;;;;5049178;28;20484;-73
2021/05/26 10:55:47;;;;;;;3.28;1.92;;;10.50;99.90;;;;;;5043346;28;20559;-73
2021/05/26 10:58:24;;;;;;;2.00;1.30;;;10.50;99.90;;;;;;5053690;28;20432;-73
2021/05/26 11:01:11;;;;;;;1.42;1.30;;;10.50;99.90;;;;;;5053480;28;20024;-73
2021/05/26 11:03:42;;;;;;;2.90;1.17;;;10.50;99.90;;;;;;5051240;28;20033;-73
2021/05/26 11:06:10;;;;;;;2.15;1.50;;;10.50;99.90;;;;;;5040760;28;20391;-73
2021/05/26 11:08:48;;;;;;;2.30;1.40;;;10.50;99.90;;;;;;5050369;28;20037;-72
2021/05/26 11:11:23;;;;;;;3.13;1.40;;;10.50;99.90;;;;;;5052293;28;20021;-72
2021/05/26 11:14:04;;;;;;;2.15;1.20;;;10.40;99.90;;;;;;5053392;28;20021;-73
2021/05/26 11:16:45;;;;;;;1.88;1.33;;;10.40;99.90;;;;;;5050916;28;20028;-73
2021/05/26 11:19:20;;;;;;;2.88;1.50;;;10.50;99.90;;;;;;5022607;28;20021;-73
2021/05/26 11:21:52;;;;;;;4.97;1.25;;;10.60;99.90;;;;;;5047540;28;20026;-73
2021/05/26 11:24:18;;;;;;;2.53;1.50;;;10.60;99.90;;;;;;5063136;28;20460;-73
2021/05/26 11:26:43;;;;;;;2.42;1.80;;;10.80;99.90;;;;;;5048948;28;20032;-73
2021/05/26 11:29:09;;;;;;;2.35;1.63;;;10.90;99.90;;;;;;5062542;28;20052;-73
2021/05/26 11:31:35;;;;;;;3.97;1.50;;;10.80;99.90;;;;;;5042080;28;20106;-73
2021/05/26 11:34:01;;;;;;;2.00;1.40;;;11.10;99.90;;;;;;5063809;28;20024;-73
2021/05/26 11:36:45;;;;;;;2.17;1.52;;;11.10;99.90;;;;;;5065456;28;20025;-73
2021/05/26 11:39:29;;;;;;;4.45;1.65;;;11.30;99.90;;;;;;5045990;28;20139;-72
2021/05/26 11:42:18;;;;;;;2.33;1.90;;;11.10;99.90;;;;;;5065418;28;20044;-73
2021/05/26 11:45:08;;;;;;;2.90;1.52;;;11.10;99.90;;;;;;5069471;28;20028;-73
2021/05/26 11:47:44;;;;;;;4.22;1.42;;;11.00;99.90;;;;;;5050968;28;20147;-73
2021/05/26 11:50:15;;;;;;;1.88;1.23;;;10.90;99.90;;;;;;5064547;28;20100;-73
2021/05/26 11:52:46;;;;;;;2.88;1.20;;;10.80;99.90;;;;;;5062772;28;20037;-73
2021/05/26 11:55:16;;;;;;;4.78;1.58;;;10.80;99.90;;;;;;5065004;28;20388;-73
2021/05/26 11:57:44;;;;;;;2.47;1.60;;;10.80;99.90;;;;;;5069095;28;20075;-73
2021/05/26 12:00:18;;;;;;;1.40;1.20;;;10.80;99.90;;;;;;5035992;28;20088;-73
2021/05/26 12:03:12;;;;;;;3.17;1.52;;;10.90;99.90;;;;;;5068230;28;20041;-74
2021/05/26 12:05:48;;;;;;;1.95;1.20;;;11.00;99.90;;;;;;5069384;28;20100;-73
2021/05/26 12:08:16;;;;;;;2.58;1.58;;;10.90;99.90;;;;;;5048807;28;20078;-73
2021/05/26 12:10:43;;;;;;;2.05;1.20;;;11.00;99.90;;;;;;5039664;28;20079;-73
2021/05/26 12:13:09;;;;;;;1.35;1.13;;;11.00;99.90;;;;;;5067020;28;20051;-73
2021/05/26 12:15:35;;;;;;;1.45;1.30;;;11.00;99.90;;;;;;5043946;28;20056;-73
2021/05/26 12:18:01;;;;;;;2.17;1.50;;;11.00;99.90;;;;;;5063623;28;20469;-72
2021/05/26 12:20:26;;;;;;;2.03;1.27;;;11.00;99.90;;;;;;5041805;28;20118;-73
2021/05/26 12:22:55;;;;;;;2.28;1.40;;;11.20;99.90;;;;;;5045447;28;20067;-73
2021/05/26 12:25:21;;;;;;;3.50;1.20;;;11.20;99.90;;;;;;5036789;28;20540;-73
2021/05/26 12:27:48;;;;;;;2.55;1.55;;;11.30;99.90;;;;;;5066525;28;20116;-73
2021/05/26 12:30:19;;;;;;;1.92;1.08;;;11.20;99.90;;;;;;5061189;28;20035;-73
2021/05/26 12:32:46;;;;;;;1.88;1.15;;;11.40;99.90;;;;;;5044097;28;20029;-73
2021/05/26 12:35:13;;;;;;;3.28;1.30;;;11.60;99.90;;;;;;5050088;28;20489;-73
2021/05/26 12:37:44;;;;;;;5.07;1.20;;;11.70;99.90;;;;;;5054836;28;20017;-73
2021/05/26 12:40:16;;;;;;;1.30;1.00;;;11.90;99.90;;;;;;5054810;28;20396;-73
2021/05/26 12:42:42;;;;;;;1.92;1.10;;;12.10;99.90;;;;;;5068343;28;20046;-73
2021/05/26 12:45:29;;;;;;;1.63;0.93;;;12.10;99.90;;;;;;5054759;28;20037;-73
2021/05/26 12:47:57;;;;;;;2.50;1.10;;;12.10;99.90;;;;;;5050579;28;20028;-72
2021/05/26 12:50:25;;;;;;;1.10;0.80;;;11.80;99.90;;;;;;5046929;28;20020;-73
2021/05/26 12:52:54;;;;;;;1.38;0.90;;;11.60;99.90;;;;;;5042956;28;20086;-73
2021/05/26 12:55:24;;;;;;;1.77;0.88;;;11.40;99.90;;;;;;5045304;28;20029;-73